Time;durP1;ratioP1;P1;durP2;ratioP2;P2;SDS_P1;SDS_P2;PMS_P1;PMS_P2;Temp;Humidity;BMP_temperature;BMP_pressure;BME280_temperature;BME280_humidity;BME280_pressure;Samples;Min_cycle;Max_cycle;Signal;HPM_P1;HPM_P2
2021/03/08 00:00:25;;;;;;;6.07;5.22;;;22.50;25.80;;;;;;5022591;28;20151;-54
2021/03/08 00:02:52;;;;;;;5.28;4.78;;;22.50;25.80;;;;;;5027137;28;20045;-54
2021/03/08 00:05:18;;;;;;;5.30;4.80;;;22.50;25.80;;;;;;5024604;28;20044;-57
2021/03/08 00:07:45;;;;;;;5.88;5.28;;;22.50;25.80;;;;;;5025189;28;20096;-50
2021/03/08 00:10:12;;;;;;;5.75;5.15;;;22.50;25.80;;;;;;5030024;28;20064;-53
2021/03/08 00:12:38;;;;;;;5.35;4.82;;;22.50;25.90;;;;;;5029744;28;20034;-50
2021/03/08 00:15:06;;;;;;;5.15;4.65;;;22.50;25.80;;;;;;5029025;28;20025;-51
2021/03/08 00:17:32;;;;;;;6.25;5.18;;;22.50;25.80;;;;;;5019616;28;20034;-51
2021/03/08 00:19:58;;;;;;;5.93;4.97;;;22.40;25.80;;;;;;5026637;28;20336;-51
2021/03/08 00:22:24;;;;;;;5.13;4.45;;;22.50;25.80;;;;;;5032395;28;20037;-53
2021/03/08 00:24:50;;;;;;;6.03;4.95;;;22.40;25.80;;;;;;5023958;28;20383;-57
2021/03/08 00:27:15;;;;;;;6.38;4.72;;;22.40;25.80;;;;;;5024350;28;20029;-53
2021/03/08 00:29:41;;;;;;;5.53;4.97;;;22.40;25.80;;;;;;5027424;28;20044;-52
2021/03/08 00:32:08;;;;;;;4.90;4.40;;;22.40;25.80;;;;;;5027458;28;20328;-52
2021/03/08 00:34:35;;;;;;;5.55;4.72;;;22.40;25.90;;;;;;5023049;28;20040;-55
2021/03/08 00:37:01;;;;;;;5.70;4.75;;;22.40;25.80;;;;;;5019232;28;20030;-51
2021/03/08 00:39:27;;;;;;;5.10;4.28;;;22.40;25.80;;;;;;5021753;28;20030;-56
2021/03/08 00:41:53;;;;;;;5.35;4.75;;;22.40;25.90;;;;;;5034349;28;20314;-55
2021/03/08 00:44:19;;;;;;;6.18;5.43;;;22.40;25.90;;;;;;5029934;28;20025;-53
2021/03/08 00:46:45;;;;;;;5.35;4.50;;;22.40;25.90;;;;;;5019037;28;20085;-56
2021/03/08 00:49:10;;;;;;;6.07;4.82;;;22.40;25.90;;;;;;5018532;28;20033;-56
2021/03/08 00:51:36;;;;;;;6.03;4.68;;;22.40;25.90;;;;;;5022393;28;20405;-55
2021/03/08 00:54:02;;;;;;;5.88;4.68;;;22.40;25.90;;;;;;5014626;28;20032;-55
2021/03/08 00:56:29;;;;;;;5.00;4.25;;;22.30;25.90;;;;;;5014011;28;20095;-54
2021/03/08 00:58:55;;;;;;;5.53;4.13;;;22.30;25.90;;;;;;5030127;28;20025;-54
2021/03/08 01:01:21;;;;;;;4.65;4.10;;;22.30;25.90;;;;;;5030611;28;20045;-51
2021/03/08 01:03:47;;;;;;;6.20;4.75;;;22.30;25.90;;;;;;5019519;28;20030;-58
2021/03/08 01:06:13;;;;;;;5.15;4.35;;;22.30;25.90;;;;;;5021121;28;20044;-55
2021/03/08 01:08:40;;;;;;;4.60;4.13;;;22.30;25.90;;;;;;5021599;28;20060;-54
2021/03/08 01:11:07;;;;;;;4.85;4.35;;;22.30;25.90;;;;;;5019262;28;20049;-52
2021/03/08 01:13:45;;;;;;;5.18;4.32;;;22.30;25.90;;;;;;5027748;28;20036;-55
2021/03/08 01:16:11;;;;;;;5.35;4.75;;;22.30;25.90;;;;;;5026089;28;20104;-56
2021/03/08 01:18:36;;;;;;;5.00;4.35;;;22.30;25.90;;;;;;5018829;28;20041;-58
2021/03/08 01:21:03;;;;;;;5.88;4.55;;;22.30;26.00;;;;;;5028852;28;20092;-58
2021/03/08 01:23:28;;;;;;;6.20;4.40;;;22.30;26.00;;;;;;5022524;28;20368;-56
2021/03/08 01:25:54;;;;;;;5.25;4.70;;;22.20;25.90;;;;;;5030677;28;20021;-56
2021/03/08 01:28:20;;;;;;;5.28;4.18;;;22.20;26.00;;;;;;5026504;28;20044;-56
2021/03/08 01:30:46;;;;;;;4.72;4.13;;;22.30;26.00;;;;;;5030263;28;20018;-58
2021/03/08 01:33:12;;;;;;;4.70;4.03;;;22.20;26.00;;;;;;5026235;28;20357;-55
2021/03/08 01:35:39;;;;;;;5.65;4.65;;;22.20;26.00;;;;;;5019767;28;20021;-55
2021/03/08 01:38:05;;;;;;;4.97;4.20;;;22.20;26.00;;;;;;5020251;28;20041;-56
2021/03/08 01:40:38;;;;;;;5.20;4.53;;;22.20;26.00;;;;;;5018921;28;20101;-59
2021/03/08 01:43:04;;;;;;;4.63;4.13;;;22.20;26.00;;;;;;5028384;28;20639;-55
2021/03/08 01:45:30;;;;;;;5.47;4.63;;;22.20;26.00;;;;;;5032918;28;20095;-55
2021/03/08 01:47:57;;;;;;;5.32;4.45;;;22.20;26.00;;;;;;5025181;28;20068;-58
2021/03/08 01:50:34;;;;;;;5.45;4.60;;;22.20;26.00;;;;;;5023087;28;20045;-56
2021/03/08 01:53:02;;;;;;;4.35;3.95;;;22.20;26.00;;;;;;5018135;28;20029;-55
2021/03/08 01:55:28;;;;;;;5.03;4.53;;;22.10;26.00;;;;;;5022990;28;20025;-54
2021/03/08 01:57:54;;;;;;;4.50;4.05;;;22.10;26.00;;;;;;5026269;28;20030;-56
2021/03/08 02:00:25;;;;;;;5.10;4.18;;;22.20;26.00;;;;;;5021036;28;20036;-56
2021/03/08 02:02:52;;;;;;;6.03;4.70;;;22.10;26.00;;;;;;5018894;28;20471;-54
2021/03/08 02:05:21;;;;;;;4.72;4.10;;;22.10;26.00;;;;;;5023417;28;20366;-54
2021/03/08 02:07:47;;;;;;;4.93;3.88;;;22.10;26.00;;;;;;5017890;28;20442;-53
2021/03/08 02:10:15;;;;;;;4.95;4.45;;;22.10;26.00;;;;;;5019611;28;20034;-52
2021/03/08 02:12:46;;;;;;;5.00;4.40;;;22.10;26.00;;;;;;5026950;28;20155;-54
2021/03/08 02:15:37;;;;;;;4.93;4.40;;;22.10;26.00;;;;;;5032016;28;20459;-56
2021/03/08 02:18:32;;;;;;;6.50;3.92;;;22.10;26.00;;;;;;5026983;28;20029;-56
2021/03/08 02:21:24;;;;;;;5.50;4.67;;;22.10;26.00;;;;;;5030158;28;20120;-53
2021/03/08 02:24:17;;;;;;;5.75;4.68;;;22.10;26.00;;;;;;5029308;28;20284;-54
2021/03/08 02:26:49;;;;;;;5.95;4.55;;;22.00;26.00;;;;;;5020482;28;20457;-53
2021/03/08 02:29:49;;;;;;;5.03;4.53;;;22.00;26.00;;;;;;5025952;28;20369;-54
2021/03/08 02:32:20;;;;;;;5.22;4.28;;;22.00;26.00;;;;;;5027893;28;20037;-53
2021/03/08 02:35:02;;;;;;;5.55;4.75;;;22.00;26.00;;;;;;5034100;28;20033;-54
2021/03/08 02:37:32;;;;;;;4.97;4.25;;;22.00;26.00;;;;;;5024836;28;20030;-53
2021/03/08 02:40:08;;;;;;;5.10;4.32;;;22.00;26.00;;;;;;5027965;28;20030;-50
2021/03/08 02:42:40;;;;;;;4.75;4.18;;;22.00;26.00;;;;;;5018980;28;20353;-57
2021/03/08 02:45:08;;;;;;;4.68;4.28;;;22.00;26.00;;;;;;5027578;28;20141;-54
2021/03/08 02:47:41;;;;;;;6.15;4.63;;;22.00;26.10;;;;;;5036117;28;20034;-55
2021/03/08 02:50:09;;;;;;;5.13;4.60;;;22.00;26.10;;;;;;5030786;28;20479;-55
2021/03/08 02:52:39;;;;;;;6.10;4.93;;;22.00;26.10;;;;;;5024261;28;20037;-56
2021/03/08 02:55:08;;;;;;;6.90;5.20;;;22.00;26.10;;;;;;5027951;28;20080;-55
2021/03/08 02:57:40;;;;;;;5.47;4.88;;;22.00;26.10;;;;;;5027001;28;20057;-55
2021/03/08 03:00:09;;;;;;;5.90;4.88;;;22.00;26.10;;;;;;5031370;28;20041;-53
2021/03/08 03:02:40;;;;;;;4.68;4.18;;;22.00;26.10;;;;;;5018709;28;20354;-55
2021/03/08 03:05:10;;;;;;;5.30;4.38;;;21.90;26.00;;;;;;5017506;28;20026;-55
2021/03/08 03:07:38;;;;;;;6.20;4.90;;;22.00;26.10;;;;;;5032477;28;20033;-56
2021/03/08 03:10:06;;;;;;;6.00;4.93;;;22.00;26.10;;;;;;5021384;28;20045;-49
2021/03/08 03:12:34;;;;;;;5.28;4.57;;;21.90;26.00;;;;;;5031746;28;20326;-57
2021/03/08 03:15:03;;;;;;;5.03;4.50;;;21.90;26.00;;;;;;5032553;28;20041;-54
2021/03/08 03:17:31;;;;;;;6.53;4.63;;;21.90;26.10;;;;;;5020409;28;20105;-57
2021/03/08 03:20:00;;;;;;;5.00;4.50;;;21.90;26.10;;;;;;5018450;28;20453;-53
2021/03/08 03:22:27;;;;;;;5.63;4.78;;;21.90;26.10;;;;;;5015948;28;20040;-58
2021/03/08 03:24:55;;;;;;;5.45;4.72;;;21.90;26.10;;;;;;5018497;28;20033;-52
2021/03/08 03:27:23;;;;;;;5.38;4.40;;;21.90;26.10;;;;;;5017033;28;20382;-56
2021/03/08 03:29:50;;;;;;;5.43;4.80;;;21.90;26.10;;;;;;5024268;28;20041;-56
2021/03/08 03:32:17;;;;;;;5.40;4.53;;;21.90;26.10;;;;;;5032445;28;20030;-50
2021/03/08 03:34:46;;;;;;;7.05;4.38;;;21.90;26.10;;;;;;5028813;28;20125;-50
2021/03/08 03:37:15;;;;;;;5.15;4.65;;;21.90;26.10;;;;;;5015661;28;20029;-53
2021/03/08 03:39:41;;;;;;;5.43;4.88;;;21.90;26.20;;;;;;5024715;28;20033;-49
2021/03/08 03:42:08;;;;;;;5.63;4.38;;;21.90;26.20;;;;;;5018298;28;20108;-52
2021/03/08 03:44:33;;;;;;;5.85;5.13;;;21.90;26.20;;;;;;5020213;28;20041;-54
2021/03/08 03:47:00;;;;;;;6.05;4.90;;;21.90;26.20;;;;;;5026139;28;20042;-54
2021/03/08 03:49:26;;;;;;;5.43;4.55;;;21.80;26.20;;;;;;5018148;28;20132;-55
2021/03/08 03:51:52;;;;;;;5.45;4.95;;;21.80;26.20;;;;;;5023302;28;20121;-51
2021/03/08 03:54:18;;;;;;;5.15;4.72;;;21.80;26.20;;;;;;5029223;28;20045;-57
2021/03/08 03:56:51;;;;;;;6.43;4.70;;;21.80;26.20;;;;;;5033993;28;20044;-54
2021/03/08 03:59:49;;;;;;;4.72;4.22;;;21.80;26.20;;;;;;5031592;28;20043;-53
2021/03/08 04:02:31;;;;;;;7.60;4.57;;;21.80;26.30;;;;;;5020887;28;20072;-54
2021/03/08 04:05:00;;;;;;;4.95;4.45;;;21.80;26.30;;;;;;5023313;28;20029;-55
2021/03/08 04:07:27;;;;;;;5.13;4.43;;;21.80;26.80;;;;;;5031469;28;20310;-54
2021/03/08 04:09:54;;;;;;;4.78;4.28;;;21.80;26.30;;;;;;5027383;28;20034;-51
2021/03/08 04:12:25;;;;;;;5.45;4.55;;;21.80;26.30;;;;;;5027000;28;20108;-51
2021/03/08 04:14:55;;;;;;;5.43;4.65;;;21.80;26.30;;;;;;5022759;28;20025;-51
2021/03/08 04:17:21;;;;;;;5.07;4.38;;;21.80;26.30;;;;;;5021948;28;20088;-54
2021/03/08 04:19:49;;;;;;;5.03;4.32;;;21.70;26.30;;;;;;5019886;28;20025;-53
2021/03/08 04:22:17;;;;;;;5.20;4.75;;;21.80;26.30;;;;;;5033246;28;20091;-57
2021/03/08 04:24:43;;;;;;;4.90;4.32;;;21.70;26.30;;;;;;5016963;28;20037;-53
2021/03/08 04:27:14;;;;;;;5.68;4.38;;;21.70;26.30;;;;;;5016886;28;20870;-56
2021/03/08 04:29:42;;;;;;;5.13;4.63;;;21.70;26.30;;;;;;5030877;28;20052;-56
2021/03/08 04:32:09;;;;;;;5.32;4.60;;;21.70;26.30;;;;;;5026987;28;20061;-51
2021/03/08 04:34:36;;;;;;;5.20;4.53;;;21.70;26.30;;;;;;5014795;28;20311;-52
2021/03/08 04:37:03;;;;;;;5.00;4.50;;;21.70;26.30;;;;;;5016520;28;20103;-55
2021/03/08 04:39:33;;;;;;;5.88;4.68;;;21.70;26.30;;;;;;5017679;28;20018;-52
2021/03/08 04:42:00;;;;;;;5.03;4.25;;;21.70;26.30;;;;;;5024910;28;20441;-54
2021/03/08 04:44:26;;;;;;;4.95;4.45;;;21.70;26.30;;;;;;5014649;28;20033;-52
2021/03/08 04:46:52;;;;;;;4.15;3.75;;;21.70;26.30;;;;;;5021417;28;20038;-55
2021/03/08 04:49:19;;;;;;;4.22;3.83;;;21.70;26.30;;;;;;5014956;28;20042;-53
2021/03/08 04:51:49;;;;;;;6.10;4.65;;;21.70;26.40;;;;;;5026800;28;20034;-57
2021/03/08 04:54:18;;;;;;;5.50;4.40;;;21.70;26.30;;;;;;5014520;28;20044;-55
2021/03/08 04:56:46;;;;;;;4.20;3.60;;;21.70;26.40;;;;;;5029128;28;20026;-52
2021/03/08 04:59:13;;;;;;;6.10;4.40;;;21.70;26.40;;;;;;5014664;28;20489;-51
2021/03/08 05:01:41;;;;;;;4.82;4.13;;;21.70;26.40;;;;;;5016123;28;20030;-54
2021/03/08 05:04:08;;;;;;;4.53;4.07;;;21.60;26.30;;;;;;5014557;28;20125;-57
2021/03/08 05:06:42;;;;;;;4.90;4.28;;;21.60;26.30;;;;;;5029878;28;20053;-56
2021/03/08 05:09:13;;;;;;;4.53;3.97;;;21.70;26.40;;;;;;5034149;28;20045;-51
2021/03/08 05:11:41;;;;;;;4.28;3.88;;;21.70;26.40;;;;;;5028017;28;20110;-54
2021/03/08 05:14:15;;;;;;;5.35;4.70;;;21.60;26.40;;;;;;5022139;28;20169;-53
2021/03/08 05:16:45;;;;;;;4.18;3.78;;;21.60;26.40;;;;;;5014728;28;20030;-56
2021/03/08 05:19:12;;;;;;;4.57;4.05;;;21.60;26.40;;;;;;5014706;28;20061;-51
2021/03/08 05:21:38;;;;;;;4.47;3.83;;;21.70;26.40;;;;;;5018459;28;20052;-51
2021/03/08 05:24:05;;;;;;;4.47;3.83;;;21.60;26.40;;;;;;5033020;28;20124;-51
2021/03/08 05:26:31;;;;;;;4.30;3.90;;;21.60;26.30;;;;;;5028149;28;20022;-49
2021/03/08 05:28:59;;;;;;;4.43;4.00;;;21.60;26.40;;;;;;5014355;28;20057;-54
2021/03/08 05:31:29;;;;;;;5.65;4.13;;;21.60;26.40;;;;;;5018687;28;20406;-50
2021/03/08 05:34:00;;;;;;;4.20;3.80;;;21.60;26.40;;;;;;5014268;28;20111;-51
2021/03/08 05:36:27;;;;;;;4.15;3.75;;;21.60;26.40;;;;;;5024331;28;20048;-52
2021/03/08 05:38:56;;;;;;;4.57;4.10;;;21.60;26.40;;;;;;5023963;28;20113;-56
2021/03/08 05:41:31;;;;;;;4.70;3.90;;;21.60;26.40;;;;;;5031904;28;20029;-54
2021/03/08 05:44:04;;;;;;;4.32;3.75;;;21.60;26.40;;;;;;5021370;28;20046;-56
2021/03/08 05:46:39;;;;;;;4.10;3.70;;;21.60;26.40;;;;;;5019506;28;20034;-56
2021/03/08 05:49:42;;;;;;;4.22;3.80;;;21.60;26.40;;;;;;5033430;28;20127;-54
2021/03/08 05:52:53;;;;;;;4.10;3.70;;;21.60;26.40;;;;;;5035854;28;20033;-51
2021/03/08 05:55:37;;;;;;;3.97;3.53;;;21.50;26.40;;;;;;5022913;28;20100;-53
2021/03/08 05:58:39;;;;;;;4.67;3.93;;;21.50;26.40;;;;;;5035548;28;20091;-55
2021/03/08 06:01:10;;;;;;;4.20;3.80;;;21.50;26.40;;;;;;5035467;28;20037;-57
2021/03/08 06:03:45;;;;;;;3.97;3.38;;;21.50;26.40;;;;;;5036983;28;20045;-54
2021/03/08 06:06:39;;;;;;;4.05;3.65;;;21.50;26.40;;;;;;5031641;28;20049;-54
2021/03/08 06:09:25;;;;;;;4.13;3.42;;;21.50;26.40;;;;;;5027619;28;20077;-55
2021/03/08 06:11:58;;;;;;;4.10;3.72;;;21.50;26.50;;;;;;5031940;28;20047;-54
2021/03/08 06:14:45;;;;;;;4.07;3.58;;;21.50;26.50;;;;;;5017088;28;20382;-52
2021/03/08 06:17:14;;;;;;;4.40;3.63;;;21.50;26.50;;;;;;5026442;28;20052;-53
2021/03/08 06:19:41;;;;;;;4.50;4.10;;;21.50;26.50;;;;;;5036093;28;20033;-56
2021/03/08 06:22:11;;;;;;;4.70;4.10;;;21.50;26.50;;;;;;5027797;28;20049;-54
2021/03/08 06:24:39;;;;;;;4.68;3.60;;;21.50;26.50;;;;;;5017009;28;20049;-49
2021/03/08 06:27:09;;;;;;;4.25;3.85;;;21.50;26.50;;;;;;5020048;28;20099;-53
2021/03/08 06:29:36;;;;;;;4.38;3.97;;;21.50;26.50;;;;;;5016833;28;20038;-51
2021/03/08 06:32:04;;;;;;;4.10;3.42;;;21.50;26.60;;;;;;5024226;28;20337;-57
2021/03/08 06:34:30;;;;;;;3.97;3.58;;;21.50;26.60;;;;;;5016895;28;20038;-53
2021/03/08 06:36:59;;;;;;;4.47;3.72;;;21.50;26.60;;;;;;5025754;28;20053;-53
2021/03/08 06:39:25;;;;;;;3.92;3.58;;;21.40;26.60;;;;;;5032099;28;20030;-57
2021/03/08 06:41:51;;;;;;;4.13;3.72;;;21.50;26.60;;;;;;5034025;28;20426;-56
2021/03/08 06:44:18;;;;;;;4.07;3.58;;;21.40;26.60;;;;;;5033714;28;20044;-55
2021/03/08 06:46:44;;;;;;;3.58;3.28;;;21.40;26.60;;;;;;5019451;28;20040;-55
2021/03/08 06:49:10;;;;;;;4.38;3.92;;;21.40;26.60;;;;;;5033229;28;20033;-51
2021/03/08 06:51:36;;;;;;;4.82;3.90;;;21.50;26.60;;;;;;5016217;28;20037;-52
2021/03/08 06:54:16;;;;;;;4.50;4.10;;;21.40;26.60;;;;;;5016657;28;20127;-55
2021/03/08 06:56:42;;;;;;;4.10;3.63;;;21.40;26.60;;;;;;5033313;28;20044;-56
2021/03/08 06:59:12;;;;;;;3.92;3.42;;;21.40;26.60;;;;;;5034770;28;20037;-53
2021/03/08 07:01:40;;;;;;;4.15;3.63;;;21.40;26.60;;;;;;5029254;28;20100;-53
2021/03/08 07:04:17;;;;;;;4.40;3.83;;;21.40;26.60;;;;;;5017076;28;20041;-54
2021/03/08 07:06:56;;;;;;;4.28;3.67;;;21.40;26.60;;;;;;5014874;28;20342;-55
2021/03/08 07:09:22;;;;;;;3.80;3.50;;;21.40;26.60;;;;;;5033022;28;20044;-55
2021/03/08 07:12:08;;;;;;;5.85;3.88;;;21.40;26.60;;;;;;5026103;28;20043;-57
2021/03/08 07:14:34;;;;;;;4.45;3.50;;;21.40;26.70;;;;;;5018161;28;20056;-56
2021/03/08 07:17:00;;;;;;;4.47;3.67;;;21.40;26.70;;;;;;5024654;28;20091;-56
2021/03/08 07:19:26;;;;;;;4.13;3.70;;;21.40;26.80;;;;;;5017044;28;20046;-53
2021/03/08 07:21:53;;;;;;;4.38;3.78;;;21.40;26.80;;;;;;5020331;28;20037;-54
2021/03/08 07:24:19;;;;;;;4.05;3.53;;;21.40;26.80;;;;;;5033810;28;20044;-54
2021/03/08 07:26:53;;;;;;;4.53;3.72;;;21.30;26.70;;;;;;5034930;28;20029;-52
2021/03/08 07:29:20;;;;;;;4.45;3.40;;;21.40;26.80;;;;;;5029578;28;20341;-59
2021/03/08 07:31:49;;;;;;;3.97;3.58;;;21.40;26.80;;;;;;5022458;28;20040;-51
2021/03/08 07:34:15;;;;;;;3.92;3.50;;;21.40;26.80;;;;;;5033762;28;20036;-51
2021/03/08 07:36:42;;;;;;;4.18;3.78;;;21.30;26.70;;;;;;5032130;28;20021;-55
2021/03/08 07:39:18;;;;;;;4.13;3.67;;;21.40;26.80;;;;;;5031033;28;20513;-55
2021/03/08 07:41:58;;;;;;;6.10;3.75;;;21.40;26.80;;;;;;5018294;28;20026;-56
2021/03/08 07:44:26;;;;;;;4.75;3.75;;;21.40;26.80;;;;;;5024252;28;20029;-54
2021/03/08 07:46:57;;;;;;;4.03;3.63;;;21.30;26.70;;;;;;5015698;28;20044;-54
2021/03/08 07:49:37;;;;;;;6.45;4.28;;;21.30;26.70;;;;;;5019564;28;20038;-53
2021/03/08 07:52:10;;;;;;;4.88;3.92;;;21.40;26.80;;;;;;5018081;28;20030;-55
2021/03/08 07:54:57;;;;;;;4.00;3.40;;;21.30;26.80;;;;;;5034454;28;20448;-53
2021/03/08 07:57:24;;;;;;;4.80;3.60;;;21.30;26.70;;;;;;5034355;28;20033;-57
2021/03/08 07:59:50;;;;;;;6.18;3.90;;;21.30;26.80;;;;;;5027537;28;20041;-58
2021/03/08 08:02:16;;;;;;;3.80;3.30;;;21.30;26.80;;;;;;5032510;28;20045;-55
2021/03/08 08:04:42;;;;;;;4.43;3.83;;;21.30;26.80;;;;;;5032087;28;21421;-54
2021/03/08 08:07:09;;;;;;;5.15;3.80;;;21.30;26.90;;;;;;5032456;28;20049;-53
2021/03/08 08:09:42;;;;;;;4.93;3.85;;;21.30;26.90;;;;;;5029620;28;20467;-54
2021/03/08 08:12:13;;;;;;;3.45;3.15;;;21.30;26.90;;;;;;5023704;28;21588;-52
2021/03/08 08:14:40;;;;;;;3.72;3.35;;;21.30;26.90;;;;;;5014780;28;20038;-53
2021/03/08 08:17:13;;;;;;;4.60;3.78;;;21.30;27.00;;;;;;5026782;28;20460;-50
2021/03/08 08:19:44;;;;;;;4.65;3.72;;;21.30;27.00;;;;;;5034424;28;20025;-48
2021/03/08 08:22:21;;;;;;;3.55;3.22;;;21.40;27.10;;;;;;5017906;28;20072;-51
2021/03/08 08:24:49;;;;;;;4.07;3.60;;;21.40;27.10;;;;;;5015147;28;20479;-55
2021/03/08 08:27:19;;;;;;;5.30;3.72;;;21.40;27.10;;;;;;5026463;28;20026;-58
2021/03/08 08:29:48;;;;;;;5.22;4.18;;;21.40;27.10;;;;;;5026078;28;20128;-56
2021/03/08 08:32:16;;;;;;;4.60;4.05;;;21.40;27.10;;;;;;5034178;28;20102;-56
2021/03/08 08:34:45;;;;;;;4.80;4.13;;;21.40;27.10;;;;;;5034932;28;20025;-57
2021/03/08 08:37:17;;;;;;;4.40;3.72;;;21.40;27.10;;;;;;5028477;28;20030;-50
2021/03/08 08:40:04;;;;;;;4.65;3.35;;;21.40;27.10;;;;;;5025381;28;20472;-58
2021/03/08 08:42:32;;;;;;;4.00;3.30;;;21.40;27.10;;;;;;5029437;28;20441;-54
2021/03/08 08:44:59;;;;;;;4.15;3.33;;;21.50;27.00;;;;;;5019525;28;20037;-54
2021/03/08 08:47:28;;;;;;;4.38;3.50;;;21.60;27.00;;;;;;5023815;28;20088;-54
2021/03/08 08:50:06;;;;;;;3.90;3.33;;;21.70;26.90;;;;;;5029255;28;20038;-54
2021/03/08 08:52:45;;;;;;;3.75;3.40;;;21.80;26.80;;;;;;5019813;28;20029;-53
2021/03/08 08:55:12;;;;;;;3.85;3.35;;;21.90;26.70;;;;;;5025023;28;20528;-56
2021/03/08 08:57:39;;;;;;;3.55;3.25;;;22.00;26.70;;;;;;5021826;28;20042;-54
2021/03/08 09:00:21;;;;;;;4.68;3.78;;;22.10;26.60;;;;;;5024346;28;20050;-56
2021/03/08 09:02:47;;;;;;;4.50;4.05;;;22.20;26.60;;;;;;5024512;28;20116;-54
2021/03/08 09:05:46;;;;;;;5.22;4.05;;;22.20;26.60;;;;;;5020652;28;20061;-57
2021/03/08 09:08:32;;;;;;;4.10;3.72;;;22.30;26.50;;;;;;4982829;28;20049;-56
2021/03/08 09:10:59;;;;;;;4.13;3.72;;;22.30;26.50;;;;;;5019237;28;20406;-55
2021/03/08 09:13:26;;;;;;;4.90;4.40;;;22.30;26.50;;;;;;5030370;28;20570;-54
2021/03/08 09:15:52;;;;;;;6.75;5.18;;;22.40;26.50;;;;;;5020689;28;20030;-56
2021/03/08 09:18:34;;;;;;;5.88;4.90;;;22.40;26.40;;;;;;5026241;28;20435;-57
2021/03/08 09:21:19;;;;;;;5.00;4.43;;;22.50;26.40;;;;;;5016272;28;20022;-58
2021/03/08 09:23:45;;;;;;;5.53;4.18;;;22.60;26.40;;;;;;5021387;28;20136;-56
2021/03/08 09:26:11;;;;;;;5.63;4.97;;;22.60;26.40;;;;;;5021208;28;20469;-55
2021/03/08 09:28:45;;;;;;;5.32;4.82;;;22.60;26.40;;;;;;5026901;28;20033;-57
2021/03/08 09:31:18;;;;;;;;;;;22.70;26.40;;;;;;5033219;28;20390;-53
2021/03/08 09:33:46;;;;;;;4.55;4.03;;;22.70;26.40;;;;;;5027075;28;19919;-55
2021/03/08 09:36:12;;;;;;;5.72;5.13;;;22.70;26.40;;;;;;5032893;28;20030;-53
2021/03/08 09:38:37;;;;;;;5.43;4.75;;;22.70;26.40;;;;;;5024151;28;20060;-55
2021/03/08 09:41:03;;;;;;;6.85;5.55;;;22.70;26.40;;;;;;5033414;28;20053;-58
2021/03/08 09:43:35;;;;;;;6.22;5.50;;;22.70;26.40;;;;;;5023024;28;20030;-55
2021/03/08 09:46:06;;;;;;;6.45;5.78;;;22.70;26.40;;;;;;5030360;28;20026;-51
2021/03/08 09:48:36;;;;;;;7.55;6.30;;;22.70;26.40;;;;;;5025566;28;20038;-52
2021/03/08 09:51:15;;;;;;;7.00;6.30;;;22.70;26.40;;;;;;5028848;28;20026;-56
2021/03/08 09:53:46;;;;;;;7.50;6.63;;;22.70;26.50;;;;;;5030458;28;20043;-54
2021/03/08 09:56:15;;;;;;;8.43;7.40;;;22.70;26.50;;;;;;5020330;28;20475;-57
2021/03/08 09:58:42;;;;;;;8.68;7.30;;;22.70;26.60;;;;;;5023032;28;20025;-54
2021/03/08 10:01:19;;;;;;;8.75;7.55;;;22.70;26.60;;;;;;5027847;28;20091;-58
2021/03/08 10:03:46;;;;;;;8.27;7.32;;;22.60;26.60;;;;;;5030607;28;20117;-55
2021/03/08 10:06:29;;;;;;;8.40;7.00;;;22.60;26.70;;;;;;5029283;28;20049;-59
2021/03/08 10:08:57;;;;;;;7.90;6.75;;;22.60;26.70;;;;;;5022971;28;20042;-57
2021/03/08 10:11:30;;;;;;;8.43;7.25;;;22.60;26.80;;;;;;5033311;28;20040;-54
2021/03/08 10:13:57;;;;;;;9.20;7.28;;;22.60;26.80;;;;;;5022413;28;20064;-58
2021/03/08 10:16:25;;;;;;;8.23;6.75;;;22.60;27.30;;;;;;5029394;28;20389;-57
2021/03/08 10:18:52;;;;;;;8.88;7.53;;;22.50;26.80;;;;;;5028519;28;20022;-59
2021/03/08 10:21:18;;;;;;;9.43;7.18;;;22.50;26.90;;;;;;5022893;28;20121;-60
2021/03/08 10:23:44;;;;;;;8.70;7.68;;;22.50;27.00;;;;;;5023293;28;20033;-63
2021/03/08 10:26:13;;;;;;;9.10;7.53;;;22.50;27.10;;;;;;5024436;28;20025;-57
2021/03/08 10:28:44;;;;;;;8.85;7.30;;;22.50;27.10;;;;;;5036798;28;20037;-60
2021/03/08 10:31:38;;;;;;;8.15;7.35;;;22.50;27.30;;;;;;5020530;28;20041;-59
2021/03/08 10:34:10;;;;;;;7.85;6.40;;;22.50;27.40;;;;;;5022910;28;20118;-58
2021/03/08 10:36:42;;;;;;;7.97;6.93;;;22.50;27.50;;;;;;5035236;28;20035;-56
2021/03/08 10:39:13;;;;;;;10.10;7.55;;;22.50;27.50;;;;;;5033601;28;20120;-52
2021/03/08 10:41:41;;;;;;;8.73;6.85;;;22.50;27.60;;;;;;5030345;28;20384;-52
2021/03/08 10:44:08;;;;;;;8.48;6.47;;;22.50;27.60;;;;;;5034737;28;20071;-54
2021/03/08 10:46:39;;;;;;;7.80;6.20;;;22.60;27.70;;;;;;5032158;28;20537;-59
2021/03/08 10:49:08;;;;;;;8.43;7.55;;;22.60;27.70;;;;;;5024302;28;20037;-58
2021/03/08 10:51:34;;;;;;;8.25;6.72;;;22.50;27.70;;;;;;5019758;28;20452;-54
2021/03/08 10:54:05;;;;;;;8.15;7.25;;;22.60;27.70;;;;;;5036505;28;20038;-52
2021/03/08 10:56:33;;;;;;;7.65;6.47;;;22.60;27.80;;;;;;5018996;28;20048;-57
2021/03/08 10:59:00;;;;;;;9.02;7.50;;;22.60;27.80;;;;;;5024875;28;20025;-59
2021/03/08 11:01:28;;;;;;;8.77;7.05;;;22.50;27.80;;;;;;5019974;28;20029;-63
2021/03/08 11:03:54;;;;;;;10.05;7.47;;;22.60;27.90;;;;;;5020068;28;20053;-56
2021/03/08 11:06:22;;;;;;;9.13;7.10;;;22.60;27.80;;;;;;5023118;28;20025;-57
2021/03/08 11:09:24;;;;;;;8.45;7.30;;;22.60;27.80;;;;;;5001712;28;20354;-60
2021/03/08 11:11:49;;;;;;;8.35;6.75;;;22.50;27.80;;;;;;5024839;28;20353;-61
2021/03/08 11:14:15;;;;;;;9.88;7.15;;;22.50;27.80;;;;;;5019570;28;20180;-60
2021/03/08 11:16:49;;;;;;;7.95;7.15;;;22.50;27.90;;;;;;5021746;28;20072;-63
2021/03/08 11:19:29;;;;;;;8.18;7.22;;;22.50;28.00;;;;;;5023276;28;20050;-61
2021/03/08 11:22:10;;;;;;;8.57;6.93;;;22.40;28.00;;;;;;5030764;28;20044;-60
2021/03/08 11:24:46;;;;;;;7.65;6.45;;;22.50;28.00;;;;;;5022702;28;20361;-59
2021/03/08 11:27:26;;;;;;;8.77;7.13;;;22.50;28.00;;;;;;5022669;28;20025;-58
2021/03/08 11:30:03;;;;;;;8.07;6.28;;;22.50;28.00;;;;;;5022061;28;20460;-62
2021/03/08 11:32:31;;;;;;;7.85;7.05;;;22.50;28.10;;;;;;5016378;28;20437;-60
2021/03/08 11:34:57;;;;;;;8.57;6.82;;;22.40;28.00;;;;;;5025060;28;20025;-60
2021/03/08 11:37:25;;;;;;;9.23;7.80;;;22.40;28.00;;;;;;5034992;28;20437;-60
2021/03/08 11:40:02;;;;;;;8.65;7.75;;;22.40;28.10;;;;;;5027489;28;20061;-59
2021/03/08 11:42:29;;;;;;;10.60;8.45;;;22.40;28.10;;;;;;5033602;28;20057;-56
2021/03/08 11:44:55;;;;;;;10.95;8.27;;;22.40;28.10;;;;;;5033467;28;20102;-56
2021/03/08 11:47:24;;;;;;;8.63;7.70;;;22.30;28.10;;;;;;5032002;28;20076;-60
2021/03/08 11:49:50;;;;;;;10.55;8.70;;;22.30;28.10;;;;;;5033693;28;20037;-59
2021/03/08 11:52:16;;;;;;;10.38;8.57;;;22.20;28.10;;;;;;5033884;28;20152;-59
2021/03/08 11:54:42;;;;;;;10.32;8.70;;;22.20;28.10;;;;;;5030203;28;20033;-55
2021/03/08 11:57:10;;;;;;;9.00;8.00;;;22.20;28.10;;;;;;5015526;28;20026;-58
2021/03/08 11:59:37;;;;;;;10.02;9.00;;;22.20;28.10;;;;;;5021995;28;20040;-58
2021/03/08 12:02:04;;;;;;;11.30;9.27;;;22.10;28.10;;;;;;5033672;28;20084;-60
2021/03/08 12:04:29;;;;;;;10.60;9.07;;;22.10;28.10;;;;;;5033768;28;20033;-57
2021/03/08 12:06:56;;;;;;;13.65;9.80;;;22.10;28.10;;;;;;5030702;28;20025;-57
2021/03/08 12:09:22;;;;;;;10.00;8.80;;;22.10;28.10;;;;;;5032631;28;20057;-56
2021/03/08 12:11:48;;;;;;;11.02;8.82;;;22.10;28.10;;;;;;5024091;28;20037;-55
2021/03/08 12:14:15;;;;;;;11.05;9.00;;;22.10;28.20;;;;;;5023350;28;20087;-58
2021/03/08 12:16:41;;;;;;;12.30;10.13;;;22.00;28.10;;;;;;5038075;28;20445;-59
2021/03/08 12:19:07;;;;;;;11.23;9.77;;;22.10;28.20;;;;;;5041683;28;20044;-57
2021/03/08 12:21:34;;;;;;;11.82;9.85;;;22.10;28.20;;;;;;5044126;28;20041;-58
2021/03/08 12:24:00;;;;;;;9.90;8.88;;;22.10;28.20;;;;;;5040994;28;20049;-55
2021/03/08 12:26:25;;;;;;;11.32;10.15;;;22.10;28.20;;;;;;5035390;28;20030;-56
2021/03/08 12:28:52;;;;;;;10.30;9.20;;;22.10;28.20;;;;;;5023253;28;20048;-60
2021/03/08 12:31:19;;;;;;;10.48;9.25;;;22.10;28.20;;;;;;5033025;28;20029;-59
2021/03/08 12:33:46;;;;;;;12.35;10.52;;;22.00;28.20;;;;;;5023994;28;20146;-54
2021/03/08 12:36:12;;;;;;;10.25;9.02;;;22.10;28.20;;;;;;5030777;28;20069;-49
2021/03/08 12:38:38;;;;;;;12.98;9.80;;;22.00;28.20;;;;;;5025708;28;20037;-50
2021/03/08 12:41:04;;;;;;;10.15;8.75;;;22.00;28.20;;;;;;5036057;28;20464;-56
2021/03/08 12:43:30;;;;;;;11.80;9.50;;;22.00;28.20;;;;;;5021142;28;20358;-51
2021/03/08 12:45:56;;;;;;;11.57;9.65;;;22.00;28.20;;;;;;5017342;28;20042;-54
2021/03/08 12:48:23;;;;;;;10.77;9.38;;;22.00;28.20;;;;;;5015897;28;20044;-49
2021/03/08 12:50:49;;;;;;;11.73;10.10;;;22.00;28.20;;;;;;5013900;28;20125;-55
2021/03/08 12:53:15;;;;;;;10.35;9.15;;;22.00;28.20;;;;;;5019857;28;20154;-51
2021/03/08 12:55:42;;;;;;;9.23;8.30;;;22.00;28.30;;;;;;5017919;28;20026;-49
2021/03/08 12:58:08;;;;;;;9.10;8.13;;;22.00;28.20;;;;;;5028029;28;20040;-52
2021/03/08 13:00:34;;;;;;;9.98;8.82;;;22.00;28.20;;;;;;5037961;28;20457;-53